Time;durP1;ratioP1;P1;durP2;ratioP2;P2;SDS_P1;SDS_P2;PMS_P1;PMS_P2;Temp;Humidity;BMP_temperature;BMP_pressure;BME280_temperature;BME280_humidity;BME280_pressure;Samples;Min_cycle;Max_cycle;Signal;HPM_P1;HPM_P2
2023/01/15 00:02:16;;;;;;;42.58;35.65;;;10.50;1.00;;;;;;5015265;28;20104;-51
2023/01/15 00:04:41;;;;;;;47.63;36.78;;;10.60;1.00;;;;;;5015148;28;20018;-52
2023/01/15 00:07:07;;;;;;;47.10;35.95;;;10.60;1.00;;;;;;5015112;28;20030;-49
2023/01/15 00:09:33;;;;;;;45.28;38.88;;;10.50;1.00;;;;;;5015043;28;20022;-51
2023/01/15 00:11:59;;;;;;;53.28;40.38;;;10.60;1.00;;;;;;5005350;28;20034;-49
2023/01/15 00:14:25;;;;;;;49.45;40.45;;;10.50;1.00;;;;;;4994624;28;20026;-55
2023/01/15 00:16:51;;;;;;;56.30;43.92;;;10.60;1.00;;;;;;5014539;28;20033;-55
2023/01/15 00:19:17;;;;;;;55.67;42.75;;;10.30;1.00;;;;;;5014717;28;20101;-52
2023/01/15 00:21:42;;;;;;;56.42;43.70;;;10.40;1.00;;;;;;5004814;28;20134;-51
2023/01/15 00:29:37;;;;;;;58.33;48.93;;;10.20;1.00;;;;;;5014690;28;20510;-53
2023/01/15 00:32:05;;;;;;;68.68;49.83;;;10.20;1.00;;;;;;5014582;28;20026;-50
2023/01/15 00:34:31;;;;;;;63.37;49.00;;;10.20;1.00;;;;;;5014730;28;20383;-51
2023/01/15 00:36:58;;;;;;;62.57;49.47;;;10.10;1.00;;;;;;5014317;28;20030;-50
2023/01/15 00:39:24;;;;;;;64.78;50.10;;;10.30;1.00;;;;;;5014417;28;20022;-50
2023/01/15 00:41:50;;;;;;;63.35;49.97;;;10.20;1.00;;;;;;5014425;28;20033;-49
2023/01/15 00:44:16;;;;;;;60.88;49.15;;;10.20;1.00;;;;;;5014356;28;20038;-50
2023/01/15 00:46:42;;;;;;;61.40;48.17;;;10.30;1.00;;;;;;5014246;28;20056;-49
2023/01/15 00:49:08;;;;;;;66.07;49.22;;;10.30;1.00;;;;;;5014219;28;20022;-51
2023/01/15 00:51:33;;;;;;;63.87;49.50;;;10.20;1.00;;;;;;5014172;28;20120;-51
2023/01/15 00:53:59;;;;;;;57.83;48.38;;;10.20;1.00;;;;;;5014134;28;20052;-50
2023/01/15 00:56:25;;;;;;;60.20;47.87;;;10.20;1.00;;;;;;5014103;28;20037;-52
2023/01/15 00:58:51;;;;;;;62.37;49.20;;;10.30;1.00;;;;;;5014118;28;20032;-48
2023/01/15 01:01:16;;;;;;;62.47;48.23;;;10.20;1.00;;;;;;5014028;28;20430;-50
2023/01/15 01:03:42;;;;;;;63.27;49.87;;;10.20;1.00;;;;;;5012918;28;20026;-49
2023/01/15 01:06:09;;;;;;;60.67;47.33;;;10.30;1.00;;;;;;5013685;28;20028;-49
2023/01/15 01:08:34;;;;;;;62.13;47.80;;;10.30;1.00;;;;;;5013726;28;20022;-49
2023/01/15 01:11:06;;;;;;;57.20;45.58;;;10.30;1.00;;;;;;5013485;28;20037;-49
2023/01/15 01:13:33;;;;;;;56.47;44.97;;;10.30;1.00;;;;;;5013431;28;20030;-49
2023/01/15 01:15:59;;;;;;;57.17;46.77;;;10.30;1.00;;;;;;4995903;28;20123;-49
2023/01/15 01:18:25;;;;;;;58.13;46.28;;;10.10;1.00;;;;;;5013716;28;20442;-49
2023/01/15 01:20:51;;;;;;;60.75;46.92;;;10.20;1.00;;;;;;5013443;28;20026;-49
2023/01/15 01:23:17;;;;;;;60.80;46.35;;;10.30;1.00;;;;;;5013370;28;20026;-49
2023/01/15 01:25:43;;;;;;;59.08;45.95;;;10.20;1.00;;;;;;5013541;28;20136;-50
2023/01/15 01:28:08;;;;;;;59.72;47.35;;;10.20;1.00;;;;;;5013744;28;20113;-50
2023/01/15 01:30:34;;;;;;;58.90;47.08;;;10.00;1.00;;;;;;4995424;28;20038;-50
2023/01/15 01:32:59;;;;;;;57.78;45.70;;;10.10;1.00;;;;;;5013517;28;20092;-50
2023/01/15 01:35:25;;;;;;;55.97;46.40;;;10.20;1.00;;;;;;5012243;28;20040;-51
2023/01/15 01:37:51;;;;;;;57.45;45.10;;;10.30;1.00;;;;;;5009452;28;20100;-51
2023/01/15 01:40:17;;;;;;;62.40;48.13;;;10.30;1.00;;;;;;5013104;28;20116;-49
2023/01/15 01:42:44;;;;;;;58.13;45.95;;;10.10;1.00;;;;;;5013002;28;20414;-49
2023/01/15 01:48:38;;;;;;;59.13;44.95;;;10.20;1.00;;;;;;4971391;28;20056;-54
2023/01/15 01:51:05;;;;;;;56.47;45.43;;;10.30;1.00;;;;;;4972320;28;20045;-50
2023/01/15 01:53:31;;;;;;;57.33;45.03;;;10.20;1.00;;;;;;4974083;28;20367;-49
2023/01/15 01:55:59;;;;;;;59.90;46.83;;;10.20;1.00;;;;;;4973803;28;20039;-51
2023/01/15 01:58:29;;;;;;;55.67;45.40;;;10.20;1.00;;;;;;4974084;28;20353;-49
2023/01/15 02:00:55;;;;;;;57.83;46.88;;;10.30;1.00;;;;;;4972925;28;20026;-50
2023/01/15 02:03:24;;;;;;;60.53;48.30;;;10.30;1.00;;;;;;4973674;28;20120;-49
2023/01/15 02:05:53;;;;;;;57.73;46.30;;;10.30;1.00;;;;;;4973535;28;20441;-49
2023/01/15 02:08:20;;;;;;;58.65;47.05;;;10.20;1.00;;;;;;4956136;28;20022;-52
2023/01/15 02:10:52;;;;;;;58.43;46.07;;;10.30;1.00;;;;;;4973124;28;20031;-51
2023/01/15 02:13:44;;;;;;;60.40;46.53;;;10.30;1.00;;;;;;4972323;28;20193;-51
2023/01/15 02:16:15;;;;;;;54.20;45.08;;;10.30;1.00;;;;;;4972139;28;20481;-49
2023/01/15 02:19:09;;;;;;;58.07;46.63;;;10.30;1.00;;;;;;4972285;28;20059;-50
2023/01/15 02:22:01;;;;;;;57.35;45.30;;;10.30;1.00;;;;;;4970304;28;20049;-49
2023/01/15 02:24:43;;;;;;;52.90;43.97;;;10.30;1.00;;;;;;4971878;28;20027;-51
2023/01/15 02:27:15;;;;;;;54.83;43.77;;;10.40;1.00;;;;;;4972052;28;20029;-52
2023/01/15 02:29:57;;;;;;;54.47;45.40;;;10.30;1.00;;;;;;4972014;28;20117;-50
2023/01/15 02:32:32;;;;;;;52.10;42.43;;;10.40;1.00;;;;;;4971968;28;20092;-51
2023/01/15 02:35:07;;;;;;;49.28;39.70;;;10.10;1.00;;;;;;4972296;28;20076;-48
2023/01/15 02:37:37;;;;;;;51.10;41.15;;;10.20;1.00;;;;;;4973722;28;20058;-49
2023/01/15 02:40:05;;;;;;;57.67;43.27;;;10.20;1.00;;;;;;4973190;28;20038;-50
2023/01/15 02:42:33;;;;;;;54.80;43.45;;;10.30;1.00;;;;;;4973339;28;20034;-50
2023/01/15 02:45:03;;;;;;;57.35;44.38;;;10.30;1.00;;;;;;4973281;28;20039;-49
2023/01/15 02:47:33;;;;;;;52.00;43.93;;;10.40;1.00;;;;;;4973090;28;20046;-49
2023/01/15 02:50:04;;;;;;;53.63;43.67;;;10.30;1.00;;;;;;4972906;28;20054;-49
2023/01/15 02:52:35;;;;;;;57.10;42.92;;;10.40;1.00;;;;;;4960028;28;20091;-50
2023/01/15 02:55:16;;;;;;;53.33;42.70;;;10.40;1.00;;;;;;4973145;28;20054;-48
2023/01/15 02:57:45;;;;;;;55.35;43.88;;;10.40;1.00;;;;;;4960841;28;20373;-49
2023/01/15 03:00:15;;;;;;;57.75;45.33;;;10.40;1.00;;;;;;4972692;28;20121;-49
2023/01/15 03:03:01;;;;;;;56.78;44.47;;;10.40;1.00;;;;;;4965589;28;20420;-49
2023/01/15 03:05:34;;;;;;;54.20;43.90;;;10.30;1.00;;;;;;4966572;28;20039;-49
2023/01/15 03:08:03;;;;;;;54.28;44.13;;;10.30;1.00;;;;;;4971572;28;20034;-54
2023/01/15 03:10:49;;;;;;;56.53;45.78;;;10.40;1.00;;;;;;4962944;28;20467;-55
2023/01/15 03:13:23;;;;;;;55.30;44.53;;;10.30;1.00;;;;;;4972763;28;20034;-50
2023/01/15 03:18:54;;;;;;;52.40;43.25;;;10.30;1.00;;;;;;4973230;28;20057;-49
2023/01/15 03:21:30;;;;;;;57.33;45.30;;;10.40;1.00;;;;;;4968522;28;20038;-50
2023/01/15 03:24:00;;;;;;;53.67;43.90;;;10.40;1.00;;;;;;4973001;28;20050;-49
2023/01/15 03:26:27;;;;;;;54.15;44.90;;;10.40;1.00;;;;;;4955348;28;20062;-49
2023/01/15 03:28:54;;;;;;;54.25;44.08;;;10.40;1.00;;;;;;4972594;28;20027;-51
2023/01/15 03:31:20;;;;;;;55.00;45.88;;;10.40;1.00;;;;;;4972570;28;20039;-48
2023/01/15 03:33:46;;;;;;;56.17;44.85;;;10.50;1.00;;;;;;4972565;28;20110;-50
2023/01/15 03:36:12;;;;;;;60.08;46.72;;;10.50;1.00;;;;;;4972931;28;20027;-49
2023/01/15 03:38:39;;;;;;;50.22;43.67;;;10.50;1.00;;;;;;4976243;28;20143;-51
2023/01/15 03:41:35;;;;;;;55.83;42.88;;;10.50;1.00;;;;;;4976100;28;20049;-49
2023/01/15 03:44:38;;;;;;;52.38;42.75;;;10.40;1.00;;;;;;4976104;28;20034;-49
2023/01/15 03:47:28;;;;;;;55.67;43.55;;;10.50;1.00;;;;;;4976189;28;20362;-49
2023/01/15 03:50:24;;;;;;;51.97;42.95;;;10.50;1.00;;;;;;4992388;28;20114;-47
2023/01/15 03:53:17;;;;;;;50.95;42.33;;;10.50;1.00;;;;;;4995061;28;20062;-49
2023/01/15 03:55:52;;;;;;;56.97;45.30;;;10.50;1.00;;;;;;4995264;28;20060;-51
2023/01/15 03:58:40;;;;;;;52.90;44.10;;;10.50;1.00;;;;;;4978682;28;20105;-50
2023/01/15 04:01:10;;;;;;;57.22;43.13;;;10.50;1.00;;;;;;4995246;28;20026;-48
2023/01/15 04:03:37;;;;;;;49.63;42.20;;;10.50;1.00;;;;;;4995170;28;20034;-50
2023/01/15 04:06:04;;;;;;;53.35;44.30;;;10.60;1.00;;;;;;4994919;28;20088;-48
2023/01/15 04:08:33;;;;;;;59.35;47.38;;;10.60;1.00;;;;;;4995223;28;20108;-50
2023/01/15 04:11:01;;;;;;;59.42;48.30;;;10.50;1.00;;;;;;4994868;28;20045;-49
2023/01/15 04:13:28;;;;;;;58.25;46.50;;;10.50;1.00;;;;;;4977389;28;20502;-48
2023/01/15 04:15:54;;;;;;;62.92;50.45;;;10.40;1.00;;;;;;4995046;28;20037;-49
2023/01/15 04:18:20;;;;;;;63.60;49.47;;;10.50;1.00;;;;;;4994772;28;20066;-48
2023/01/15 04:20:46;;;;;;;58.95;48.67;;;10.50;1.00;;;;;;4995168;28;20050;-49
2023/01/15 04:23:12;;;;;;;60.43;47.73;;;10.40;1.00;;;;;;4994691;28;20034;-48
2023/01/15 04:25:39;;;;;;;61.47;51.35;;;10.40;1.00;;;;;;4995119;28;20349;-48
2023/01/15 04:28:05;;;;;;;64.63;53.03;;;10.40;1.00;;;;;;4994917;28;20471;-48
2023/01/15 04:30:31;;;;;;;64.78;51.33;;;10.40;1.00;;;;;;4994748;28;20131;-47
2023/01/15 04:32:57;;;;;;;63.75;51.03;;;10.40;1.00;;;;;;4994836;28;20208;-49
2023/01/15 04:35:22;;;;;;;64.82;50.72;;;10.40;1.00;;;;;;4994650;28;20026;-50
2023/01/15 04:37:48;;;;;;;67.13;51.67;;;10.30;1.00;;;;;;4977617;28;20023;-53
2023/01/15 04:44:05;;;;;;;61.35;51.00;;;10.30;1.00;;;;;;4994728;28;20035;-50
2023/01/15 04:45:44;;;;;;;67.63;53.20;;;10.30;1.00;;;;;;4979874;28;20045;-50
2023/01/15 04:48:13;;;;;;;70.45;55.60;;;10.30;1.00;;;;;;4993560;28;21138;-48
2023/01/15 04:50:39;;;;;;;68.95;54.88;;;10.20;1.00;;;;;;4994670;28;20116;-48
2023/01/15 04:53:05;;;;;;;66.57;54.57;;;10.20;1.00;;;;;;4994541;28;20066;-48
2023/01/15 04:55:30;;;;;;;66.30;52.00;;;10.20;1.00;;;;;;4994602;28;20040;-47
2023/01/15 04:57:56;;;;;;;68.63;54.53;;;10.20;1.00;;;;;;4994451;28;20022;-47
2023/01/15 05:00:22;;;;;;;65.07;51.88;;;10.20;1.00;;;;;;4994488;28;20114;-48
2023/01/15 05:02:48;;;;;;;66.57;53.35;;;10.20;1.00;;;;;;4994413;28;20115;-49
2023/01/15 05:05:14;;;;;;;66.50;52.53;;;10.20;1.00;;;;;;4994170;28;20034;-48
2023/01/15 05:07:40;;;;;;;66.13;52.13;;;10.20;1.00;;;;;;4994127;28;20026;-50
2023/01/15 05:10:06;;;;;;;67.38;52.97;;;10.20;1.00;;;;;;4993995;28;20105;-49
2023/01/15 05:12:32;;;;;;;65.95;54.03;;;10.10;1.00;;;;;;4993754;28;20046;-50
2023/01/15 05:14:58;;;;;;;71.03;55.42;;;10.20;1.00;;;;;;4994380;28;20026;-48
2023/01/15 05:17:24;;;;;;;67.05;54.42;;;10.20;1.00;;;;;;4976372;28;20031;-49
2023/01/15 05:19:49;;;;;;;72.00;56.73;;;10.20;1.00;;;;;;4976035;28;20345;-48
2023/01/15 05:22:15;;;;;;;74.38;57.42;;;10.10;1.00;;;;;;4994118;28;20052;-48
2023/01/15 05:24:40;;;;;;;70.73;56.20;;;10.20;1.00;;;;;;4993836;28;20022;-53
2023/01/15 05:27:06;;;;;;;67.47;54.47;;;10.30;1.00;;;;;;4993647;28;20023;-52
2023/01/15 05:29:32;;;;;;;69.43;54.35;;;10.30;1.00;;;;;;4993565;28;20101;-48
2023/01/15 05:31:57;;;;;;;70.70;56.10;;;10.30;1.00;;;;;;4993651;28;20245;-49
2023/01/15 05:34:23;;;;;;;66.85;52.55;;;10.10;1.00;;;;;;4993983;28;20188;-48
2023/01/15 05:37:11;;;;;;;72.13;56.88;;;10.20;1.00;;;;;;4993510;28;20440;-49
2023/01/15 05:39:37;;;;;;;68.47;55.35;;;10.20;1.00;;;;;;4984825;28;20476;-47
2023/01/15 05:42:02;;;;;;;69.78;52.90;;;10.30;1.00;;;;;;4976299;28;20034;-49
2023/01/15 05:44:29;;;;;;;69.60;54.17;;;10.20;1.00;;;;;;4993327;28;20030;-48
2023/01/15 05:46:58;;;;;;;72.50;57.45;;;10.30;1.00;;;;;;4993204;28;20026;-48
2023/01/15 05:49:25;;;;;;;71.75;55.88;;;10.10;1.00;;;;;;4993191;28;20046;-49
2023/01/15 05:51:52;;;;;;;70.57;56.23;;;10.20;1.00;;;;;;4975715;28;20030;-49
2023/01/15 05:54:24;;;;;;;69.03;56.27;;;10.20;1.00;;;;;;4992996;28;20010;-48
2023/01/15 05:56:50;;;;;;;66.80;53.83;;;10.20;1.00;;;;;;4993249;28;20022;-47
2023/01/15 05:59:19;;;;;;;67.93;53.70;;;10.20;1.00;;;;;;4993033;28;20533;-49
2023/01/15 06:01:45;;;;;;;67.43;52.67;;;10.20;1.00;;;;;;4993017;28;20023;-49
2023/01/15 06:04:16;;;;;;;63.03;53.47;;;10.20;1.00;;;;;;4989285;28;20026;-48
2023/01/15 06:06:42;;;;;;;69.57;53.23;;;10.20;1.00;;;;;;4993159;28;20026;-49
2023/01/15 06:09:08;;;;;;;70.57;54.70;;;10.30;1.00;;;;;;4993022;28;20088;-50
2023/01/15 06:11:34;;;;;;;64.70;54.40;;;10.30;1.00;;;;;;4992822;28;20046;-48
2023/01/15 06:13:59;;;;;;;65.32;53.92;;;10.20;1.00;;;;;;4993047;28;20023;-52
2023/01/15 06:16:25;;;;;;;66.33;54.23;;;10.20;1.00;;;;;;4992866;28;20030;-51
2023/01/15 06:18:51;;;;;;;70.27;56.07;;;10.20;1.00;;;;;;4992869;28;20175;-48
2023/01/15 06:21:17;;;;;;;73.27;59.60;;;10.20;1.00;;;;;;4975407;28;20050;-48
2023/01/15 06:23:43;;;;;;;82.15;63.90;;;10.10;1.00;;;;;;4992655;28;20038;-48
2023/01/15 06:26:15;;;;;;;84.82;67.88;;;10.10;1.00;;;;;;4992848;28;20052;-49
2023/01/15 06:28:42;;;;;;;76.40;61.50;;;10.00;1.00;;;;;;4992701;28;20019;-49
2023/01/15 06:31:10;;;;;;;75.07;60.03;;;10.00;1.00;;;;;;4992657;28;20034;-51
2023/01/15 06:33:36;;;;;;;68.83;56.60;;;10.00;1.00;;;;;;4992644;28;20018;-48
2023/01/15 06:36:07;;;;;;;67.82;56.15;;;9.90;1.00;;;;;;4992593;28;20479;-49
2023/01/15 06:38:33;;;;;;;70.83;55.83;;;10.00;1.00;;;;;;4992636;28;20034;-50
2023/01/15 06:41:02;;;;;;;70.87;58.90;;;9.90;1.00;;;;;;4992659;28;20383;-49
2023/01/15 06:49:03;;;;;;;74.10;59.50;;;9.80;1.00;;;;;;4955574;28;20042;-49
2023/01/15 06:51:29;;;;;;;67.67;55.23;;;9.70;1.00;;;;;;4992761;28;20040;-48
2023/01/15 06:53:55;;;;;;;79.50;62.70;;;9.80;1.00;;;;;;4992673;28;20502;-49
2023/01/15 06:56:20;;;;;;;75.60;60.37;;;9.80;1.00;;;;;;4992631;28;20026;-51
2023/01/15 06:58:46;;;;;;;80.70;64.37;;;9.90;1.00;;;;;;4992628;28;20179;-49
2023/01/15 07:01:14;;;;;;;81.17;64.67;;;9.80;1.00;;;;;;4992484;28;20437;-55
2023/01/15 07:03:39;;;;;;;84.17;65.53;;;9.90;1.00;;;;;;4992827;28;20026;-50
2023/01/15 07:06:11;;;;;;;84.73;64.53;;;9.70;1.00;;;;;;4974851;28;20029;-53
2023/01/15 07:08:37;;;;;;;73.70;61.40;;;9.80;1.00;;;;;;4975309;28;20101;-54
2023/01/15 07:11:08;;;;;;;77.57;64.70;;;9.90;1.00;;;;;;4992718;28;20081;-50
2023/01/15 07:13:34;;;;;;;80.67;65.80;;;9.90;1.00;;;;;;4996555;28;20034;-55
2023/01/15 07:16:01;;;;;;;76.93;61.27;;;9.90;1.00;;;;;;4996493;28;20030;-53
2023/01/15 07:18:29;;;;;;;75.80;60.70;;;9.80;1.00;;;;;;4996672;28;20041;-50
2023/01/15 07:20:56;;;;;;;72.80;57.17;;;9.90;1.00;;;;;;4996173;28;20026;-49
2023/01/15 07:23:25;;;;;;;69.77;56.47;;;9.90;1.00;;;;;;4996029;28;20026;-48
2023/01/15 07:25:52;;;;;;;67.87;57.07;;;9.90;1.00;;;;;;4996164;28;20069;-52
2023/01/15 07:28:20;;;;;;;77.72;61.13;;;9.80;1.00;;;;;;4995924;28;20026;-49
2023/01/15 07:30:45;;;;;;;72.13;57.83;;;9.90;1.00;;;;;;4995936;28;20486;-52
2023/01/15 07:33:11;;;;;;;73.43;57.57;;;9.80;1.00;;;;;;4996023;28;20030;-50
2023/01/15 07:35:37;;;;;;;75.67;60.47;;;9.90;1.00;;;;;;4995753;28;20026;-50
2023/01/15 07:38:03;;;;;;;73.50;58.63;;;9.90;1.00;;;;;;4995947;28;20380;-51
2023/01/15 07:40:28;;;;;;;73.30;57.57;;;9.90;1.00;;;;;;4993928;28;20069;-56
2023/01/15 07:49:44;;;;;;;76.82;59.90;;;9.50;1.00;;;;;;4992539;28;20040;-54
2023/01/15 07:51:15;;;;;;;73.57;59.10;;;9.70;1.00;;;;;;4995711;28;20033;-51
2023/01/15 07:53:40;;;;;;;70.53;56.60;;;9.80;1.00;;;;;;4995773;28;20034;-50
2023/01/15 07:56:07;;;;;;;75.57;59.60;;;9.80;1.00;;;;;;4995711;28;20034;-50
2023/01/15 07:58:33;;;;;;;78.17;60.30;;;9.90;1.00;;;;;;4995429;28;20053;-53
2023/01/15 08:00:58;;;;;;;81.20;62.40;;;9.90;1.00;;;;;;4995527;28;20410;-49
2023/01/15 08:03:24;;;;;;;76.40;61.00;;;9.90;1.00;;;;;;4995481;28;20026;-50
2023/01/15 08:05:49;;;;;;;79.27;58.97;;;9.90;1.00;;;;;;4977785;28;20022;-49
2023/01/15 08:08:16;;;;;;;74.13;60.37;;;9.80;1.00;;;;;;4995709;28;20034;-49
2023/01/15 08:16:11;;;;;;;81.20;60.17;;;9.80;1.00;;;;;;4995770;28;20269;-54
2023/01/15 08:18:37;;;;;;;76.87;59.73;;;9.80;1.00;;;;;;4995148;28;20027;-48
2023/01/15 08:21:03;;;;;;;72.63;57.47;;;9.80;1.00;;;;;;4977774;28;20053;-51
2023/01/15 08:23:28;;;;;;;75.43;60.47;;;9.90;1.00;;;;;;4994100;28;20395;-49
2023/01/15 08:25:54;;;;;;;76.40;60.87;;;9.70;1.00;;;;;;4994881;28;20395;-50
2023/01/15 08:28:19;;;;;;;79.47;61.47;;;9.80;1.00;;;;;;4994954;28;20038;-52
2023/01/15 08:30:51;;;;;;;80.90;61.70;;;9.70;1.00;;;;;;4995195;28;20101;-49
2023/01/15 08:33:17;;;;;;;75.50;58.97;;;9.80;1.00;;;;;;4994975;28;20032;-53
2023/01/15 08:39:04;;;;;;;79.30;61.77;;;9.90;1.00;;;;;;4988892;28;20028;-55
2023/01/15 08:41:31;;;;;;;72.47;57.30;;;9.80;1.00;;;;;;4994532;28;20026;-52
2023/01/15 08:43:56;;;;;;;73.63;57.87;;;9.90;1.00;;;;;;4995288;28;20026;-51
2023/01/15 08:46:22;;;;;;;72.07;55.17;;;9.90;1.00;;;;;;4986586;28;20468;-57
2023/01/15 08:48:48;;;;;;;72.17;56.27;;;10.10;1.00;;;;;;4994815;28;20492;-57
2023/01/15 08:51:14;;;;;;;74.60;57.80;;;10.10;1.00;;;;;;4994836;28;20113;-50
2023/01/15 08:53:40;;;;;;;74.10;56.90;;;10.00;1.00;;;;;;4994950;28;20268;-53
2023/01/15 08:56:13;;;;;;;74.77;59.43;;;9.80;1.00;;;;;;4983997;28;20461;-56
2023/01/15 08:58:39;;;;;;;72.07;57.07;;;9.90;1.00;;;;;;4975662;28;20065;-51
2023/01/15 09:01:07;;;;;;;70.40;56.90;;;10.00;1.00;;;;;;4994669;28;20058;-57
2023/01/15 09:03:33;;;;;;;68.23;53.80;;;10.10;1.00;;;;;;4977374;28;20030;-50
2023/01/15 09:06:00;;;;;;;72.60;53.40;;;10.20;1.00;;;;;;4994849;28;20031;-51
2023/01/15 09:08:27;;;;;;;63.83;51.77;;;10.10;1.00;;;;;;4994558;28;20027;-54
2023/01/15 09:10:57;;;;;;;66.07;53.73;;;10.20;1.00;;;;;;4993375;28;20034;-52
2023/01/15 09:13:23;;;;;;;65.82;52.67;;;10.20;1.00;;;;;;4988242;28;20049;-51
2023/01/15 09:15:48;;;;;;;67.00;53.63;;;10.10;1.00;;;;;;4976558;28;20019;-52
2023/01/15 09:18:17;;;;;;;69.77;53.23;;;10.10;1.00;;;;;;4994459;28;20080;-51
2023/01/15 09:20:44;;;;;;;70.03;54.83;;;10.00;1.00;;;;;;4976568;28;20026;-49
2023/01/15 09:23:09;;;;;;;69.10;54.65;;;10.10;1.00;;;;;;4994295;28;20072;-52
2023/01/15 09:25:35;;;;;;;69.53;53.13;;;10.20;1.00;;;;;;4994098;28;20467;-51
2023/01/15 09:28:00;;;;;;;63.07;49.80;;;10.20;1.00;;;;;;4994163;28;20131;-52
2023/01/15 09:30:26;;;;;;;71.70;56.17;;;10.20;1.00;;;;;;4993873;28;20061;-50
2023/01/15 09:32:52;;;;;;;67.30;53.80;;;10.10;1.00;;;;;;4994068;28;20066;-50
2023/01/15 09:35:17;;;;;;;58.73;49.53;;;10.20;1.00;;;;;;4994014;28;20512;-50
2023/01/15 09:37:43;;;;;;;67.50;52.93;;;10.10;1.00;;;;;;4993741;28;20085;-50
2023/01/15 09:40:42;;;;;;;68.90;51.47;;;10.10;1.00;;;;;;4993935;28;20015;-50
2023/01/15 09:43:31;;;;;;;68.73;51.50;;;10.00;1.00;;;;;;4993952;28;20022;-53
2023/01/15 09:46:16;;;;;;;59.60;47.60;;;9.90;1.00;;;;;;4993881;28;20030;-52
2023/01/15 09:49:06;;;;;;;68.38;52.08;;;10.00;1.00;;;;;;4993654;28;20466;-54
2023/01/15 09:51:51;;;;;;;66.03;50.63;;;9.80;1.00;;;;;;4993618;28;20506;-49
2023/01/15 09:54:35;;;;;;;63.67;50.78;;;9.80;1.00;;;;;;4993872;28;20088;-51
2023/01/15 09:57:02;;;;;;;59.80;47.97;;;9.70;1.00;;;;;;4993779;28;20019;-54
2023/01/15 09:59:35;;;;;;;64.67;51.37;;;9.60;1.00;;;;;;4989221;28;20030;-50
2023/01/15 10:02:12;;;;;;;68.27;53.47;;;9.70;1.00;;;;;;4991092;28;20026;-52
2023/01/15 10:04:46;;;;;;;68.90;53.13;;;9.80;1.00;;;;;;4975966;28;20361;-52
2023/01/15 10:07:21;;;;;;;71.13;55.97;;;9.90;1.00;;;;;;4993363;28;20018;-52
2023/01/15 10:10:01;;;;;;;72.93;54.80;;;9.90;1.00;;;;;;4993524;28;20034;-51
2023/01/15 10:12:35;;;;;;;68.37;53.73;;;9.90;1.00;;;;;;4979755;28;20038;-52
2023/01/15 10:15:23;;;;;;;75.17;56.70;;;10.00;1.00;;;;;;4993116;28;20042;-55
2023/01/15 10:17:57;;;;;;;68.03;54.80;;;10.00;1.00;;;;;;4975694;28;20471;-51
2023/01/15 10:20:44;;;;;;;72.00;55.47;;;10.00;1.00;;;;;;4993471;28;20380;-53
2023/01/15 10:23:13;;;;;;;74.20;57.97;;;9.80;1.00;;;;;;4993484;28;20100;-53
2023/01/15 10:26:09;;;;;;;80.93;60.60;;;10.10;1.00;;;;;;4992847;28;20038;-52
2023/01/15 10:29:00;;;;;;;83.37;63.40;;;10.10;1.00;;;;;;4979612;28;20038;-50
2023/01/15 10:31:52;;;;;;;75.80;59.70;;;10.20;1.00;;;;;;4992961;28;20026;-53
2023/01/15 10:34:51;;;;;;;78.83;60.57;;;10.10;1.00;;;;;;4989262;28;20044;-50
2023/01/15 10:37:35;;;;;;;79.90;62.00;;;10.10;1.00;;;;;;4992943;28;20022;-50
2023/01/15 10:40:35;;;;;;;82.47;63.83;;;10.10;1.00;;;;;;4993030;28;20193;-51
2023/01/15 10:43:10;;;;;;;90.25;67.88;;;10.20;1.00;;;;;;4992495;28;20026;-51
2023/01/15 10:45:47;;;;;;;81.07;60.47;;;10.20;1.00;;;;;;4992339;28;20459;-50
2023/01/15 10:48:20;;;;;;;83.00;63.17;;;10.30;1.00;;;;;;4979483;28;20046;-51
2023/01/15 10:50:47;;;;;;;82.45;62.80;;;10.30;1.00;;;;;;4992909;28;20026;-50
2023/01/15 10:53:37;;;;;;;81.32;61.55;;;10.20;1.00;;;;;;4992605;28;20026;-49
2023/01/15 10:56:43;;;;;;;82.57;60.63;;;10.30;1.00;;;;;;4993046;28;20044;-49
2023/01/15 10:59:18;;;;;;;80.53;61.38;;;10.30;1.00;;;;;;4990610;28;20030;-50
2023/01/15 11:01:44;;;;;;;75.47;58.30;;;10.40;1.00;;;;;;4992843;28;20058;-51
2023/01/15 11:04:12;;;;;;;78.28;58.80;;;10.20;1.00;;;;;;4975439;28;20029;-53
2023/01/15 11:06:39;;;;;;;91.80;64.13;;;10.40;1.00;;;;;;4992622;28;20092;-52
2023/01/15 11:09:06;;;;;;;78.00;60.73;;;10.30;1.00;;;;;;4992716;28;20022;-52
2023/01/15 11:19:35;;;;;;;75.57;57.53;;;10.40;1.00;;;;;;4992505;28;20167;-52
2023/01/15 11:20:13;;;;;;;83.15;61.72;;;10.20;1.00;;;;;;4992777;28;20029;-50
2023/01/15 11:22:39;;;;;;;85.23;63.23;;;10.30;1.00;;;;;;4992425;28;20026;-51
2023/01/15 11:25:07;;;;;;;90.53;64.72;;;10.40;1.00;;;;;;4992328;28;20022;-51
2023/01/15 11:27:35;;;;;;;89.63;65.40;;;10.40;1.00;;;;;;4990005;28;20061;-51
2023/01/15 11:30:05;;;;;;;80.97;61.45;;;10.50;1.00;;;;;;4988613;28;20069;-51
2023/01/15 11:32:34;;;;;;;82.88;61.58;;;10.40;1.00;;;;;;4992320;28;20466;-50
2023/01/15 11:35:19;;;;;;;86.97;64.70;;;10.40;1.00;;;;;;4974878;28;20361;-51
2023/01/15 11:37:45;;;;;;;84.00;63.50;;;10.40;1.00;;;;;;4992086;28;20113;-52
2023/01/15 11:40:24;;;;;;;86.55;63.67;;;10.50;1.00;;;;;;4980198;28;20481;-50
2023/01/15 11:51:33;;;;;;;87.63;64.40;;;10.50;1.00;;;;;;4992598;28;20049;-51
2023/01/15 11:54:03;;;;;;;83.55;62.60;;;10.50;1.00;;;;;;4992511;28;20022;-53
2023/01/15 11:56:30;;;;;;;86.28;63.88;;;10.50;1.00;;;;;;4992433;28;20026;-51
2023/01/15 11:59:00;;;;;;;89.32;64.15;;;10.50;1.00;;;;;;4995290;28;20539;-53
2023/01/15 12:01:34;;;;;;;87.43;65.75;;;10.50;1.00;;;;;;4977972;28;20544;-51
2023/01/15 12:04:03;;;;;;;88.90;68.65;;;10.50;1.00;;;;;;4995842;28;20105;-51
2023/01/15 12:06:30;;;;;;;88.65;65.95;;;10.60;1.00;;;;;;4995578;28;20061;-50
2023/01/15 12:09:32;;;;;;;84.50;62.83;;;10.70;1.00;;;;;;4995852;28;20026;-51
2023/01/15 12:12:05;;;;;;;77.20;59.30;;;10.60;1.00;;;;;;4978029;28;20183;-50
2023/01/15 12:14:48;;;;;;;79.70;60.97;;;10.60;1.00;;;;;;4986028;28;20551;-54
2023/01/15 12:17:33;;;;;;;75.15;57.00;;;10.50;1.00;;;;;;4995808;28;20033;-52
2023/01/15 12:20:18;;;;;;;77.25;59.78;;;10.60;1.00;;;;;;4995248;28;20030;-50
2023/01/15 12:23:02;;;;;;;77.65;59.75;;;10.60;1.00;;;;;;4995680;28;20155;-51
2023/01/15 12:25:33;;;;;;;77.50;60.58;;;10.60;1.00;;;;;;4995331;28;20123;-54
2023/01/15 12:28:06;;;;;;;76.45;58.78;;;10.60;1.00;;;;;;4995492;28;20030;-52
2023/01/15 12:30:59;;;;;;;80.43;59.42;;;10.70;1.00;;;;;;4995140;28;20022;-51
2023/01/15 12:33:56;;;;;;;84.05;64.22;;;10.60;1.00;;;;;;4977623;28;20503;-51
2023/01/15 12:36:28;;;;;;;85.13;65.57;;;10.70;1.00;;;;;;4995289;28;20065;-52
2023/01/15 12:39:12;;;;;;;85.68;62.88;;;10.60;1.00;;;;;;4995070;28;20026;-50
2023/01/15 12:48:04;;;;;;;82.30;62.97;;;10.60;1.00;;;;;;4994846;28;20114;-50
2023/01/15 12:50:43;;;;;;;79.43;61.10;;;10.70;1.00;;;;;;4986031;28;20050;-53
2023/01/15 12:53:15;;;;;;;73.57;57.45;;;10.60;1.00;;;;;;4994761;28;20057;-49
2023/01/15 12:55:50;;;;;;;81.95;63.00;;;10.60;1.00;;;;;;4994679;28;20034;-52
2023/01/15 12:58:50;;;;;;;80.05;60.88;;;10.60;1.00;;;;;;4994715;28;20041;-52
2023/01/15 13:01:22;;;;;;;81.80;61.42;;;10.70;1.00;;;;;;4994901;28;20376;-49
2023/01/15 13:03:55;;;;;;;81.70;63.25;;;10.50;1.00;;;;;;4994423;28;20026;-51
2023/01/15 13:06:25;;;;;;;87.47;68.05;;;10.50;1.00;;;;;;4994526;28;20057;-50
2023/01/15 13:08:51;;;;;;;81.45;63.88;;;10.40;1.00;;;;;;4993586;28;20166;-49
2023/01/15 13:11:17;;;;;;;87.28;65.45;;;10.30;1.00;;;;;;4994607;28;20121;-50
2023/01/15 13:13:56;;;;;;;87.67;65.30;;;10.30;1.00;;;;;;4994323;28;20483;-50
2023/01/15 13:16:28;;;;;;;81.07;63.92;;;10.40;1.00;;;;;;4994497;28;20022;-51
2023/01/15 13:19:18;;;;;;;81.72;62.17;;;10.40;1.00;;;;;;4994232;28;20122;-50
2023/01/15 13:21:46;;;;;;;86.47;63.70;;;10.50;1.00;;;;;;4994229;28;20038;-50
2023/01/15 13:24:43;;;;;;;76.18;61.03;;;10.40;1.00;;;;;;4994066;28;20077;-49
2023/01/15 13:27:21;;;;;;;85.75;62.45;;;10.50;1.00;;;;;;4994067;28;20030;-52
2023/01/15 13:29:55;;;;;;;81.93;62.28;;;10.50;1.00;;;;;;4994058;28;20065;-50
2023/01/15 13:32:27;;;;;;;;;;;10.60;1.00;;;;;;4994321;28;20365;-52
2023/01/15 13:35:03;;;;;;;77.05;56.72;;;10.50;1.00;;;;;;4994103;28;19960;-52
2023/01/15 13:37:56;;;;;;;70.88;54.35;;;10.60;1.00;;;;;;4993924;28;20049;-50
2023/01/15 13:40:34;;;;;;;68.53;50.83;;;10.60;1.00;;;;;;4990926;28;20038;-50
2023/01/15 13:43:01;;;;;;;63.88;49.25;;;10.60;1.00;;;;;;4993748;28;20029;-50
2023/01/15 13:45:29;;;;;;;72.30;52.53;;;10.50;1.00;;;;;;4994029;28;20027;-53
2023/01/15 13:48:03;;;;;;;65.93;50.45;;;10.60;1.00;;;;;;4993479;28;20018;-54
2023/01/15 13:50:30;;;;;;;69.55;49.95;;;10.50;1.00;;;;;;4993628;28;20023;-54
2023/01/15 13:53:14;;;;;;;58.60;45.60;;;10.50;1.00;;;;;;4993547;28;20495;-51
2023/01/15 13:55:47;;;;;;;58.50;43.55;;;10.60;1.00;;;;;;4981741;28;20105;-50